Time;durP1;ratioP1;P1;durP2;ratioP2;P2;SDS_P1;SDS_P2;PMS_P1;PMS_P2;Temp;Humidity;BMP_temperature;BMP_pressure;BME280_temperature;BME280_humidity;BME280_pressure;Samples;Min_cycle;Max_cycle;Signal;HPM_P1;HPM_P2
2021/03/24 00:00:25;;;;;;;14.57;9.30;;;;;;;18.12;62.07;101552.19;5004758;28;20377;-66
2021/03/24 00:02:54;;;;;;;14.70;9.20;;;;;;;18.11;62.00;101546.03;5007128;28;20556;-67
2021/03/24 00:05:22;;;;;;;14.50;9.23;;;;;;;18.11;62.32;101534.59;5005198;28;20034;-67
2021/03/24 00:07:48;;;;;;;14.50;8.90;;;;;;;18.10;62.05;101543.56;5010445;28;20030;-67
2021/03/24 00:10:15;;;;;;;13.80;9.10;;;;;;;18.10;62.02;101551.53;4991739;28;20034;-67
2021/03/24 00:12:41;;;;;;;13.50;9.32;;;;;;;18.09;61.98;101536.59;5011388;28;20095;-68
2021/03/24 00:15:10;;;;;;;14.13;8.68;;;;;;;18.09;61.98;101539.25;4971827;28;20124;-66
2021/03/24 00:17:36;;;;;;;14.43;9.23;;;;;;;18.08;61.90;101542.91;5001167;28;20056;-67
2021/03/24 00:20:05;;;;;;;13.57;9.40;;;;;;;18.07;61.74;101547.38;5009515;28;20038;-67
2021/03/24 00:22:31;;;;;;;13.75;8.98;;;;;;;18.07;61.89;101546.56;5011168;28;20112;-67
2021/03/24 00:24:56;;;;;;;12.00;8.32;;;;;;;18.06;61.92;101544.91;4991849;28;20103;-71
2021/03/24 00:27:21;;;;;;;13.45;8.73;;;;;;;18.06;61.66;101542.25;4996570;28;20080;-67
2021/03/24 00:29:47;;;;;;;13.48;8.32;;;;;;;18.05;62.04;101544.06;4983093;28;20045;-67
2021/03/24 00:32:12;;;;;;;14.88;8.40;;;;;;;18.05;61.69;101537.94;4982191;28;20062;-66
2021/03/24 00:34:38;;;;;;;13.75;8.40;;;;;;;18.05;61.78;101543.25;5000778;28;20064;-67
2021/03/24 00:37:04;;;;;;;13.35;8.25;;;;;;;18.04;61.75;101542.41;5008630;28;20034;-66
2021/03/24 00:39:29;;;;;;;12.13;8.13;;;;;;;18.03;61.57;101542.59;5014649;28;20465;-66
2021/03/24 00:41:55;;;;;;;11.52;7.82;;;;;;;18.03;61.43;101539.94;5015299;28;20473;-66
2021/03/24 00:44:20;;;;;;;11.02;7.35;;;;;;;18.02;61.84;101541.75;5008798;28;20698;-66
2021/03/24 00:46:45;;;;;;;10.05;7.55;;;;;;;18.03;61.38;101542.59;5009850;28;20749;-66
2021/03/24 00:49:11;;;;;;;11.57;7.18;;;;;;;18.01;61.67;101547.25;5009989;28;20137;-69
2021/03/24 00:51:36;;;;;;;12.18;7.55;;;;;;;18.01;61.51;101545.41;5020108;28;20482;-67
2021/03/24 00:54:02;;;;;;;15.10;8.35;;;;;;;18.01;61.72;101547.25;5008512;28;20122;-66
2021/03/24 00:56:27;;;;;;;10.98;7.30;;;;;;;18.01;61.62;101555.22;5009084;28;20524;-67
2021/03/24 00:58:53;;;;;;;11.20;7.15;;;;;;;18.01;61.42;101549.91;4992876;28;20541;-70
2021/03/24 01:01:18;;;;;;;12.88;7.65;;;;;;;18.01;61.57;101547.25;5004021;28;20038;-67
2021/03/24 01:03:44;;;;;;;11.38;7.22;;;;;;;17.99;61.00;101547.41;4998923;28;20053;-66
2021/03/24 01:06:10;;;;;;;12.07;7.07;;;;;;;17.99;61.42;101538.59;5009500;28;20499;-66
2021/03/24 01:08:35;;;;;;;13.15;6.88;;;;;;;17.98;61.29;101545.72;5009129;28;20026;-66
2021/03/24 01:11:02;;;;;;;11.65;7.45;;;;;;;17.99;61.33;101551.88;5011717;28;20468;-66
2021/03/24 01:13:28;;;;;;;10.25;6.90;;;;;;;17.98;61.48;101548.38;5009396;28;20107;-67
2021/03/24 01:15:54;;;;;;;10.45;6.60;;;;;;;17.96;61.29;101553.88;5008065;28;20033;-67
2021/03/24 01:18:21;;;;;;;12.57;6.70;;;;;;;17.98;61.32;101558.19;5009728;28;20066;-66
2021/03/24 01:20:46;;;;;;;12.60;6.68;;;;;;;17.96;61.31;101548.56;5012709;28;20037;-67
2021/03/24 01:23:12;;;;;;;11.02;6.75;;;;;;;17.96;61.19;101547.72;4992002;28;20520;-67
2021/03/24 01:25:38;;;;;;;9.75;6.32;;;;;;;17.96;61.02;101545.91;5008188;28;20038;-67
2021/03/24 01:28:06;;;;;;;9.95;6.70;;;;;;;17.95;61.17;101544.25;5009677;28;20034;-66
2021/03/24 01:30:33;;;;;;;10.55;6.10;;;;;;;17.95;60.83;101552.22;5007089;28;20030;-67
2021/03/24 01:32:59;;;;;;;10.10;6.43;;;;;;;17.95;61.01;101546.06;5009797;28;20068;-66
2021/03/24 01:35:26;;;;;;;9.90;6.13;;;;;;;17.94;60.87;101539.94;5014562;28;20034;-66
2021/03/24 01:37:53;;;;;;;9.45;6.25;;;;;;;17.94;61.09;101541.75;5009666;28;20037;-67
2021/03/24 01:40:25;;;;;;;11.02;6.13;;;;;;;17.93;60.89;101538.28;5008659;28;20168;-67
2021/03/24 01:42:52;;;;;;;9.43;5.90;;;;;;;17.93;60.98;101535.63;5008829;28;20108;-66
2021/03/24 01:45:56;;;;;;;9.98;6.20;;;;;;;17.90;60.57;101525.34;5002910;28;20153;-68
2021/03/24 01:48:22;;;;;;;9.13;5.90;;;;;;;17.92;60.82;101528.66;4989597;28;20088;-66
2021/03/24 01:50:47;;;;;;;9.45;6.82;;;;;;;17.91;60.92;101521.69;5008636;28;20045;-67
2021/03/24 01:53:13;;;;;;;8.55;5.72;;;;;;;17.92;60.80;101522.53;4990975;28;20038;-66
2021/03/24 01:55:38;;;;;;;9.50;5.70;;;;;;;17.90;60.99;101517.38;5008903;28;20041;-66
2021/03/24 01:58:04;;;;;;;8.25;5.47;;;;;;;17.90;60.60;101521.88;5005094;28;20053;-67
2021/03/24 02:00:41;;;;;;;8.20;5.28;;;;;;;17.88;60.85;101519.38;5008567;28;20037;-66
2021/03/24 02:03:07;;;;;;;8.73;5.63;;;;;;;17.89;60.53;101514.91;5007192;28;20053;-67
2021/03/24 02:05:33;;;;;;;7.90;5.13;;;;;;;17.90;60.40;101519.22;5008721;28;20176;-68
2021/03/24 02:08:29;;;;;;;8.50;5.65;;;;;;;17.87;60.51;101520.38;4990084;28;20485;-67
2021/03/24 02:11:16;;;;;;;7.68;5.15;;;;;;;17.86;60.59;101516.06;5006568;28;20056;-66
2021/03/24 02:13:50;;;;;;;8.07;5.05;;;;;;;17.87;60.28;101515.06;4997030;28;20522;-67
2021/03/24 02:16:32;;;;;;;7.63;4.90;;;;;;;17.85;60.46;101509.09;5006300;28;20033;-66
2021/03/24 02:19:01;;;;;;;9.73;5.82;;;;;;;17.87;60.24;101517.72;4990839;28;20179;-67
2021/03/24 02:21:34;;;;;;;7.55;4.95;;;;;;;17.86;60.66;101505.47;5009015;28;20584;-67
2021/03/24 02:24:30;;;;;;;8.43;4.82;;;;;;;17.84;60.32;101511.94;5007930;28;20140;-66
2021/03/24 02:27:28;;;;;;;8.35;4.93;;;;;;;17.84;60.30;101515.41;5007254;28;20034;-66
2021/03/24 02:30:02;;;;;;;8.95;5.38;;;;;;;17.83;60.46;101516.41;4974442;28;20042;-69
2021/03/24 02:32:33;;;;;;;5.95;4.47;;;;;;;17.83;60.09;101519.06;5008416;28;20149;-67
2021/03/24 02:35:08;;;;;;;8.30;4.57;;;;;;;17.84;60.33;101517.25;5012100;28;20033;-68
2021/03/24 02:37:35;;;;;;;8.68;5.28;;;;;;;17.84;60.16;101520.72;5010798;28;20034;-68
2021/03/24 02:40:06;;;;;;;8.30;4.50;;;;;;;17.83;60.10;101521.72;5008267;28;20040;-67
2021/03/24 02:42:31;;;;;;;7.95;5.07;;;;;;;17.83;60.33;101515.56;5015699;28;20057;-67
2021/03/24 02:44:57;;;;;;;9.48;4.97;;;;;;;17.83;60.31;101523.53;5006704;28;20485;-68
2021/03/24 02:47:23;;;;;;;7.05;4.70;;;;;;;17.82;60.30;101517.38;4993970;28;20114;-67
2021/03/24 02:49:49;;;;;;;8.07;4.43;;;;;;;17.83;60.43;101519.06;5018069;28;20045;-68
2021/03/24 02:52:15;;;;;;;6.82;4.53;;;;;;;17.82;59.82;101514.72;5007577;28;20041;-67
2021/03/24 02:54:43;;;;;;;7.65;4.97;;;;;;;17.82;59.90;101517.38;5014805;28;20077;-67
2021/03/24 02:57:09;;;;;;;7.97;4.88;;;;;;;17.81;60.17;101518.38;5006548;28;20038;-68
2021/03/24 02:59:35;;;;;;;7.55;4.20;;;;;;;17.81;60.18;101518.38;5017688;28;20036;-67
2021/03/24 03:02:19;;;;;;;6.28;4.32;;;;;;;17.79;60.04;101517.72;5006281;28;20036;-67
2021/03/24 03:04:50;;;;;;;7.10;3.97;;;;;;;17.80;59.95;101510.59;5006885;28;20445;-67
2021/03/24 03:07:22;;;;;;;6.68;4.20;;;;;;;17.79;60.10;101520.38;5006220;28;20030;-66
2021/03/24 03:09:50;;;;;;;6.95;4.07;;;;;;;17.80;59.72;101521.19;5001023;28;20037;-67
2021/03/24 03:12:30;;;;;;;7.30;4.35;;;;;;;17.78;59.65;101524.03;5006806;28;20033;-67
2021/03/24 03:15:06;;;;;;;8.50;4.30;;;;;;;17.78;59.77;101524.03;5007592;28;20032;-67
2021/03/24 03:17:47;;;;;;;7.30;3.95;;;;;;;17.78;59.60;101526.69;5007052;28;20372;-67
2021/03/24 03:20:47;;;;;;;5.93;3.53;;;;;;;17.76;59.65;101520.72;4996840;28;20037;-67
2021/03/24 03:23:19;;;;;;;6.97;3.97;;;;;;;17.77;59.70;101522.38;5008367;28;20116;-67
2021/03/24 03:26:15;;;;;;;6.28;3.83;;;;;;;17.74;59.48;101520.06;4994310;28;20029;-68
2021/03/24 03:28:44;;;;;;;6.82;3.95;;;;;;;17.77;59.70;101519.72;5014589;28;20132;-67
2021/03/24 03:31:21;;;;;;;7.05;4.03;;;;;;;17.75;59.44;101518.22;5006800;28;20049;-66
2021/03/24 03:33:50;;;;;;;7.00;3.72;;;;;;;17.75;59.48;101519.06;5006208;28;20064;-68
2021/03/24 03:36:16;;;;;;;6.45;3.60;;;;;;;17.75;59.38;101520.88;5006926;28;20514;-67
2021/03/24 03:38:45;;;;;;;7.45;3.70;;;;;;;17.75;59.49;101524.38;4998148;28;20109;-67
2021/03/24 03:41:14;;;;;;;7.68;3.50;;;;;;;17.75;59.52;101518.22;5006452;28;20117;-67
2021/03/24 03:43:41;;;;;;;7.38;3.80;;;;;;;17.75;59.63;101518.22;5006555;28;20026;-71
2021/03/24 03:46:08;;;;;;;6.45;3.45;;;;;;;17.75;59.43;101524.38;4992952;28;20041;-67
2021/03/24 03:48:34;;;;;;;6.03;3.17;;;;;;;17.75;59.38;101521.72;5018301;28;20044;-67
2021/03/24 03:51:03;;;;;;;7.93;3.83;;;;;;;17.74;59.30;101517.41;4993026;28;20034;-67
2021/03/24 03:53:38;;;;;;;6.68;3.40;;;;;;;17.74;59.34;101524.53;5005469;28;20037;-67
2021/03/24 03:56:07;;;;;;;;;;;;;;;17.69;59.10;101517.09;4991181;28;20409;-67
2021/03/24 03:58:52;;;;;;;6.50;3.38;;;;;;;17.71;59.21;101512.44;5017548;28;19917;-67
2021/03/24 04:01:26;;;;;;;5.40;3.20;;;;;;;17.72;59.15;101511.44;5009247;28;20659;-67
2021/03/24 04:04:17;;;;;;;5.63;3.22;;;;;;;17.72;59.19;101507.97;4997968;28;20045;-67
2021/03/24 04:07:04;;;;;;;5.00;2.95;;;;;;;17.69;59.30;101503.81;5010197;28;20149;-66
2021/03/24 04:09:33;;;;;;;5.38;3.35;;;;;;;17.72;59.08;101505.31;5001959;28;20109;-66
2021/03/24 04:11:59;;;;;;;6.25;3.05;;;;;;;17.71;59.06;101496.53;4994648;28;20033;-68
2021/03/24 04:14:28;;;;;;;5.20;2.92;;;;;;;17.71;59.04;101507.13;4993361;28;20057;-67
2021/03/24 04:16:54;;;;;;;6.55;3.33;;;;;;;17.70;59.08;101504.66;5015308;28;20048;-67
2021/03/24 04:19:24;;;;;;;4.95;3.25;;;;;;;17.70;59.01;101505.47;5021603;28;20133;-67
2021/03/24 04:21:56;;;;;;;5.28;2.97;;;;;;;17.70;59.09;101510.78;5022765;28;20033;-67
2021/03/24 04:24:25;;;;;;;6.38;3.10;;;;;;;17.69;59.08;101498.50;5010640;28;20128;-68
2021/03/24 04:26:54;;;;;;;5.40;3.08;;;;;;;17.69;58.82;101505.66;5010596;28;20061;-67
2021/03/24 04:29:28;;;;;;;6.18;3.00;;;;;;;17.67;58.89;101505.75;5023333;28;20480;-67
2021/03/24 04:31:58;;;;;;;6.35;3.42;;;;;;;17.69;58.94;101500.34;5010500;28;20117;-67
2021/03/24 04:34:24;;;;;;;6.93;3.20;;;;;;;17.67;58.79;101503.09;5009111;28;20025;-67
2021/03/24 04:37:05;;;;;;;6.13;3.25;;;;;;;17.66;58.90;101493.50;5009872;28;20041;-67
2021/03/24 04:39:38;;;;;;;5.68;2.95;;;;;;;17.66;58.68;101494.31;5009891;28;20374;-68
2021/03/24 04:42:10;;;;;;;5.20;2.90;;;;;;;17.65;58.66;101495.31;5010329;28;20061;-67
2021/03/24 04:44:38;;;;;;;4.13;2.65;;;;;;;17.66;58.73;101493.50;4973391;28;20054;-67
2021/03/24 04:47:24;;;;;;;6.75;2.88;;;;;;;17.64;58.47;101495.47;5001480;28;20056;-66
2021/03/24 04:50:06;;;;;;;5.70;2.63;;;;;;;17.63;58.30;101499.97;4996777;28;20038;-67
2021/03/24 04:52:34;;;;;;;4.60;2.60;;;;;;;17.65;58.53;101510.41;4996574;28;20121;-67
2021/03/24 04:55:08;;;;;;;4.20;2.35;;;;;;;17.63;58.30;101501.78;5008067;28;20026;-67
2021/03/24 04:57:35;;;;;;;6.75;2.78;;;;;;;17.63;58.53;101499.13;5014872;28;20021;-67
2021/03/24 05:00:08;;;;;;;4.45;2.70;;;;;;;17.64;58.21;101500.78;4996414;28;20113;-66
2021/03/24 05:02:35;;;;;;;4.50;2.50;;;;;;;17.64;58.06;101516.72;4991763;28;20823;-67
2021/03/24 05:05:17;;;;;;;6.28;2.80;;;;;;;17.62;58.22;101510.75;4991423;28;20080;-67
2021/03/24 05:07:58;;;;;;;5.35;2.50;;;;;;;17.62;58.13;101508.91;5015882;28;20112;-67
2021/03/24 05:10:31;;;;;;;5.60;2.72;;;;;;;17.61;57.89;101512.56;5001973;28;20355;-67
2021/03/24 05:13:23;;;;;;;7.22;2.42;;;;;;;17.59;58.18;101514.56;5002147;28;20049;-66
2021/03/24 05:16:03;;;;;;;5.55;2.30;;;;;;;17.60;57.97;101512.75;4997882;28;20049;-67
2021/03/24 05:18:30;;;;;;;5.68;2.50;;;;;;;17.60;58.04;101508.25;5017067;28;20065;-67
2021/03/24 05:21:22;;;;;;;5.35;2.47;;;;;;;17.60;58.18;101510.09;4958789;28;20025;-69
2021/03/24 05:23:54;;;;;;;6.07;2.58;;;;;;;17.60;58.05;101507.44;5009197;28;20072;-67
2021/03/24 05:26:30;;;;;;;6.05;2.50;;;;;;;17.59;58.30;101505.78;5010194;28;20025;-67
2021/03/24 05:28:59;;;;;;;4.57;2.20;;;;;;;17.60;58.18;101510.91;5007668;28;20037;-69
2021/03/24 05:31:28;;;;;;;4.15;2.33;;;;;;;17.59;57.90;101506.59;5009644;28;20034;-67
2021/03/24 05:34:01;;;;;;;5.28;2.60;;;;;;;17.60;58.22;101507.44;5009273;28;20117;-69
2021/03/24 05:36:35;;;;;;;4.53;2.20;;;;;;;17.58;57.81;101512.06;5008113;28;20044;-67
2021/03/24 05:39:24;;;;;;;4.30;2.25;;;;;;;17.57;57.96;101513.91;5009325;28;20033;-67
2021/03/24 05:42:08;;;;;;;4.60;2.25;;;;;;;17.59;58.08;101513.72;5008385;28;20100;-67
2021/03/24 05:44:48;;;;;;;5.25;2.30;;;;;;;17.55;58.16;101507.94;4997865;28;20081;-67
2021/03/24 05:47:55;;;;;;;3.60;2.00;;;;;;;17.56;57.87;101506.13;4989861;28;20401;-68
2021/03/24 05:50:44;;;;;;;6.10;2.20;;;;;;;17.57;57.66;101513.06;5000375;28;20046;-68
2021/03/24 05:53:28;;;;;;;3.80;2.10;;;;;;;17.55;58.04;101513.25;4990753;28;20128;-66
2021/03/24 05:56:09;;;;;;;5.47;1.88;;;;;;;17.55;58.00;101523.03;5016257;28;20029;-67
2021/03/24 05:58:40;;;;;;;5.15;2.22;;;;;;;17.56;57.85;101519.38;5022300;28;20041;-67
2021/03/24 06:01:10;;;;;;;4.40;2.13;;;;;;;17.57;57.61;101521.03;5006940;28;20030;-67
2021/03/24 06:03:35;;;;;;;3.80;2.20;;;;;;;17.55;57.70;101518.56;4996699;28;20100;-67
2021/03/24 06:06:34;;;;;;;5.55;2.28;;;;;;;17.53;57.91;101523.19;4988629;28;20148;-67
2021/03/24 06:09:23;;;;;;;4.05;1.95;;;;;;;17.52;57.87;101528.66;4996546;28;20038;-67
2021/03/24 06:11:51;;;;;;;4.30;2.05;;;;;;;17.54;57.65;101527.50;4959154;28;20077;-67
2021/03/24 06:14:25;;;;;;;3.45;1.63;;;;;;;17.53;57.49;101522.38;4988791;28;20038;-67
2021/03/24 06:17:06;;;;;;;3.88;1.88;;;;;;;17.51;57.52;101530.47;4987019;28;20034;-68
2021/03/24 06:19:37;;;;;;;4.57;2.10;;;;;;;17.52;57.74;101536.63;4996297;28;20397;-68
2021/03/24 06:22:24;;;;;;;5.20;2.00;;;;;;;17.51;57.52;101533.13;4987333;28;20030;-68
2021/03/24 06:25:07;;;;;;;3.85;1.67;;;;;;;17.51;57.52;101533.13;4985210;28;20030;-67
2021/03/24 06:27:50;;;;;;;4.28;2.03;;;;;;;17.51;57.59;101534.94;4988609;28;20038;-67
2021/03/24 06:30:40;;;;;;;4.32;2.20;;;;;;;17.49;57.33;101532.47;4970268;28;20052;-67
2021/03/24 06:33:08;;;;;;;5.70;2.10;;;;;;;17.51;57.74;101530.47;4988412;28;20037;-67
2021/03/24 06:35:46;;;;;;;4.22;1.80;;;;;;;17.51;57.33;101529.63;4987686;28;20030;-67
2021/03/24 06:38:17;;;;;;;4.68;2.20;;;;;;;17.51;57.70;101526.97;4989328;28;20057;-68
2021/03/24 06:40:48;;;;;;;4.00;1.80;;;;;;;17.50;57.59;101525.31;4987371;28;20037;-67
2021/03/24 06:43:32;;;;;;;4.65;2.08;;;;;;;17.48;57.79;101525.50;4987812;28;20061;-69
2021/03/24 06:46:16;;;;;;;5.18;1.90;;;;;;;17.49;57.48;101529.81;4985394;28;20042;-68
2021/03/24 06:48:50;;;;;;;4.78;1.75;;;;;;;17.51;57.71;101529.63;4991528;28;20026;-71
2021/03/24 06:51:53;;;;;;;4.72;1.90;;;;;;;17.50;57.48;101535.94;5000249;28;20150;-67
2021/03/24 06:54:58;;;;;;;3.38;1.73;;;;;;;17.50;57.83;101533.28;4994919;28;20509;-68
2021/03/24 06:57:23;;;;;;;3.38;1.88;;;;;;;17.53;57.79;101551.56;4966196;28;20053;-67
2021/03/24 06:59:54;;;;;;;3.33;1.65;;;;;;;17.53;57.49;101552.38;4994499;28;20038;-70
2021/03/24 07:02:29;;;;;;;4.97;1.90;;;;;;;17.54;57.93;101546.06;4987741;28;20038;-67
2021/03/24 07:05:07;;;;;;;3.90;1.67;;;;;;;17.54;57.72;101553.22;5006467;28;20038;-72
2021/03/24 07:07:56;;;;;;;3.88;1.60;;;;;;;17.57;58.02;101550.22;5014967;28;20077;-69
2021/03/24 07:10:34;;;;;;;3.85;1.52;;;;;;;17.56;58.11;101560.00;5004539;28;20508;-69
2021/03/24 07:13:47;;;;;;;4.55;1.98;;;;;;;17.58;58.66;101549.22;5008149;28;20124;-71
2021/03/24 07:16:20;;;;;;;6.20;2.15;;;;;;;17.61;58.60;101557.66;4913691;29;20036;-66
2021/03/24 07:19:09;;;;;;;5.07;1.98;;;;;;;17.66;58.88;101554.50;4914845;29;20444;-63
2021/03/24 07:22:05;;;;;;;6.35;2.10;;;;;;;17.67;58.89;101558.81;4981919;28;20054;-65
2021/03/24 07:24:49;;;;;;;7.10;2.15;;;;;;;17.70;58.86;101558.53;4999799;28;20035;-65
2021/03/24 07:27:52;;;;;;;4.50;1.80;;;;;;;17.70;58.94;101569.16;5008800;28;20088;-65
2021/03/24 07:30:17;;;;;;;10.05;1.85;;;;;;;17.74;58.91;101567.81;5006894;28;20516;-69
2021/03/24 07:32:53;;;;;;;7.95;2.40;;;;;;;17.77;58.90;101577.28;5007884;28;20119;-65
2021/03/24 07:36:03;;;;;;;7.47;2.75;;;;;;;17.77;59.24;101567.50;5006994;28;20026;-66
2021/03/24 07:38:47;;;;;;;4.72;2.13;;;;;;;17.81;59.17;101567.97;5008147;28;20105;-75
2021/03/24 07:41:51;;;;;;;5.75;1.60;;;;;;;17.82;59.01;101565.16;5000172;28;20140;-64
2021/03/24 07:44:47;;;;;;;6.35;2.10;;;;;;;17.84;58.88;101557.88;5011043;28;20033;-66
2021/03/24 07:47:22;;;;;;;12.30;2.15;;;;;;;17.87;58.77;101565.50;5011013;28;20069;-68
2021/03/24 07:50:16;;;;;;;6.03;2.10;;;;;;;17.92;58.60;101557.84;4997300;28;20037;-65
2021/03/24 07:52:44;;;;;;;8.23;1.75;;;;;;;17.96;58.71;101561.81;5010975;28;20350;-69
2021/03/24 07:55:15;;;;;;;9.18;2.45;;;;;;;17.99;58.32;101568.66;5009882;28;20092;-70
2021/03/24 07:57:46;;;;;;;10.07;2.20;;;;;;;18.03;58.63;101564.66;5013811;28;20064;-65
2021/03/24 08:00:33;;;;;;;6.97;2.00;;;;;;;18.05;58.67;101572.44;5009513;28;20120;-68
2021/03/24 08:03:04;;;;;;;12.52;1.95;;;;;;;18.10;58.06;101570.94;4989437;28;20152;-71
2021/03/24 08:05:45;;;;;;;9.07;1.73;;;;;;;18.13;58.19;101575.09;4997762;28;20030;-66
2021/03/24 08:08:15;;;;;;;8.80;1.90;;;;;;;18.17;57.87;101571.94;5001530;28;20030;-65
2021/03/24 08:11:08;;;;;;;7.65;2.58;;;;;;;18.19;57.78;101574.44;5007932;28;20030;-66
2021/03/24 08:13:42;;;;;;;13.30;2.70;;;;;;;18.24;57.95;101562.28;5007393;28;20118;-64
2021/03/24 08:17:02;;;;;;;12.05;3.03;;;;;;;18.25;57.70;101569.25;5006808;28;20042;-66
2021/03/24 08:19:40;;;;;;;11.68;2.85;;;;;;;18.32;57.49;101569.44;4939843;28;20130;-65
2021/03/24 08:22:27;;;;;;;10.15;3.00;;;;;;;18.32;57.28;101563.28;4997847;28;20058;-65
2021/03/24 08:25:26;;;;;;;10.50;3.30;;;;;;;18.34;57.13;101572.72;5007893;28;20029;-71
2021/03/24 08:28:19;;;;;;;11.52;3.08;;;;;;;18.36;56.97;101585.84;5005198;28;20030;-72
2021/03/24 08:30:49;;;;;;;9.50;3.45;;;;;;;18.38;56.99;101579.34;4997191;28;20038;-67
2021/03/24 08:33:29;;;;;;;19.20;3.67;;;;;;;18.37;56.51;101582.19;5008332;28;20158;-66
2021/03/24 08:36:09;;;;;;;12.57;3.30;;;;;;;18.38;56.93;101589.16;5007659;28;20128;-72
2021/03/24 08:39:12;;;;;;;12.95;3.17;;;;;;;18.35;56.56;101584.19;4988251;28;20743;-69
2021/03/24 08:42:14;;;;;;;20.43;3.83;;;;;;;18.33;55.75;101592.31;5008971;28;20246;-70
2021/03/24 08:45:10;;;;;;;11.68;2.72;;;;;;;18.33;55.55;101596.81;5003939;28;20032;-64
2021/03/24 08:47:41;;;;;;;12.70;2.97;;;;;;;18.32;55.12;101590.66;5006142;28;20041;-66
2021/03/24 08:50:15;;;;;;;14.50;2.88;;;;;;;18.31;54.40;101602.28;5006529;28;20056;-62
2021/03/24 08:52:56;;;;;;;13.82;2.58;;;;;;;18.31;53.78;101599.63;5006565;28;20033;-66
2021/03/24 08:55:51;;;;;;;8.57;2.47;;;;;;;18.31;53.38;101590.84;5006303;28;20038;-65
2021/03/24 08:58:18;;;;;;;10.80;2.38;;;;;;;18.29;53.18;101598.94;4977019;28;20034;-66
2021/03/24 09:00:58;;;;;;;13.10;2.65;;;;;;;18.25;52.96;101601.13;5006793;28;20137;-66
2021/03/24 09:03:41;;;;;;;8.88;2.38;;;;;;;18.27;52.64;101599.13;5018834;28;20053;-65
2021/03/24 09:06:35;;;;;;;9.95;2.10;;;;;;;18.23;51.88;101597.81;5009640;28;20449;-64
2021/03/24 09:09:38;;;;;;;7.45;2.05;;;;;;;18.20;51.80;101597.31;5002177;28;20037;-64
2021/03/24 09:12:28;;;;;;;11.20;2.30;;;;;;;18.17;51.80;101601.16;5004941;28;20068;-64
2021/03/24 09:15:03;;;;;;;15.18;2.25;;;;;;;18.17;51.39;101601.16;5008252;28;20026;-64
2021/03/24 09:17:41;;;;;;;10.80;2.45;;;;;;;18.15;50.83;101604.97;5010082;28;20167;-64
2021/03/24 09:20:25;;;;;;;9.38;2.33;;;;;;;18.12;50.78;101610.59;5008600;28;20034;-65
2021/03/24 09:23:44;;;;;;;10.38;2.10;;;;;;;18.07;50.72;101592.53;5000757;28;20105;-64
2021/03/24 09:26:31;;;;;;;7.50;1.85;;;;;;;18.06;50.35;101612.09;4945641;28;20043;-64
2021/03/24 09:29:18;;;;;;;8.68;2.97;;;;;;;18.04;50.12;101592.88;5008143;28;20100;-67
2021/03/24 09:31:56;;;;;;;7.45;1.83;;;;;;;18.01;49.60;101600.34;5008591;28;20040;-63
2021/03/24 09:34:58;;;;;;;7.15;2.45;;;;;;;17.98;49.24;101598.00;5008710;28;20394;-66
2021/03/24 09:37:58;;;;;;;6.68;1.70;;;;;;;17.94;48.92;101603.66;5008223;28;20397;-64
2021/03/24 09:40:49;;;;;;;9.25;2.30;;;;;;;17.93;49.32;101603.81;5008610;28;20065;-64
2021/03/24 09:43:29;;;;;;;9.27;2.08;;;;;;;17.91;48.61;101601.31;5000904;28;20084;-64
2021/03/24 09:46:02;;;;;;;7.90;1.77;;;;;;;17.91;48.45;101603.97;5007442;28;20038;-72
2021/03/24 09:48:28;;;;;;;6.15;1.52;;;;;;;17.90;48.74;101599.66;5010459;28;20092;-64
2021/03/24 09:51:15;;;;;;;7.95;1.90;;;;;;;17.85;48.38;101598.53;5007693;28;20057;-65
2021/03/24 09:53:42;;;;;;;7.40;1.98;;;;;;;17.86;48.15;101601.00;5016062;28;20022;-64
2021/03/24 09:56:15;;;;;;;6.75;1.45;;;;;;;17.84;47.63;101597.69;5008636;28;20050;-64
2021/03/24 09:59:02;;;;;;;7.75;2.30;;;;;;;17.80;47.33;101591.03;4990104;28;20029;-64
2021/03/24 10:01:38;;;;;;;6.15;1.70;;;;;;;17.80;47.78;101604.31;5009003;28;20057;-65
2021/03/24 10:04:06;;;;;;;8.40;1.85;;;;;;;17.78;47.43;101603.66;4994080;28;20065;-64
2021/03/24 10:06:44;;;;;;;6.45;1.70;;;;;;;17.74;47.05;101597.00;4988321;28;20172;-66
2021/03/24 10:09:10;;;;;;;8.73;1.77;;;;;;;17.75;47.21;101597.84;4989279;28;20466;-64
2021/03/24 10:12:06;;;;;;;8.73;2.00;;;;;;;17.72;47.04;101593.69;4987967;28;20038;-64
2021/03/24 10:14:38;;;;;;;5.55;1.58;;;;;;;17.73;46.80;101594.53;4988972;28;20061;-66
2021/03/24 10:17:11;;;;;;;7.78;1.48;;;;;;;17.72;46.71;101591.06;4985768;28;20034;-64
2021/03/24 10:19:46;;;;;;;7.82;1.55;;;;;;;17.71;46.98;101596.53;4988859;28;20049;-64
2021/03/24 10:22:19;;;;;;;6.82;1.63;;;;;;;17.71;47.13;101604.47;4988411;28;20378;-68
2021/03/24 10:24:51;;;;;;;8.45;2.05;;;;;;;17.69;46.81;101590.56;4989621;28;20497;-64
2021/03/24 10:27:20;;;;;;;5.63;1.80;;;;;;;17.67;46.73;101595.97;4988044;28;20053;-64
2021/03/24 10:30:11;;;;;;;6.18;1.40;;;;;;;17.63;46.37;101590.16;4988666;28;20116;-64
2021/03/24 10:32:51;;;;;;;6.80;1.70;;;;;;;17.63;46.45;101584.88;4959318;28;20346;-64
2021/03/24 10:35:45;;;;;;;4.95;1.73;;;;;;;17.61;46.21;101589.50;4988792;28;20484;-64
2021/03/24 10:38:11;;;;;;;5.57;1.45;;;;;;;17.63;46.80;101599.94;4953117;28;20104;-65
2021/03/24 10:40:42;;;;;;;9.60;2.08;;;;;;;17.62;46.35;101603.59;4988170;28;20504;-65
2021/03/24 10:43:34;;;;;;;8.02;1.50;;;;;;;17.57;46.11;101596.16;4988611;28;20108;-64
2021/03/24 10:46:11;;;;;;;7.13;1.88;;;;;;;17.56;46.30;101593.66;4977901;28;20133;-64
2021/03/24 10:48:45;;;;;;;8.82;1.90;;;;;;;17.54;46.01;101600.97;4989666;28;20067;-64
2021/03/24 10:51:18;;;;;;;5.55;1.73;;;;;;;17.55;46.19;101592.00;4987454;28;20030;-64
2021/03/24 10:53:44;;;;;;;6.20;1.48;;;;;;;17.55;46.32;101587.53;4989394;28;20037;-64
2021/03/24 10:56:29;;;;;;;5.88;1.70;;;;;;;17.53;46.23;101583.38;4987524;28;20121;-66
2021/03/24 10:59:23;;;;;;;7.68;1.45;;;;;;;17.53;46.14;101580.72;4975585;28;20548;-71
2021/03/24 11:01:56;;;;;;;6.55;2.00;;;;;;;17.52;46.06;101571.94;4987786;28;20034;-66
2021/03/24 11:04:27;;;;;;;6.25;1.50;;;;;;;17.51;45.78;101564.94;4992648;28;20680;-65
2021/03/24 11:07:25;;;;;;;7.07;1.63;;;;;;;17.50;46.12;101565.13;5001683;28;20034;-66
2021/03/24 11:10:29;;;;;;;7.85;1.35;;;;;;;17.49;46.28;101566.09;4974391;28;20034;-64
2021/03/24 11:13:09;;;;;;;6.60;1.52;;;;;;;17.48;45.76;101556.50;4993175;28;20386;-71
2021/03/24 11:15:52;;;;;;;5.82;1.42;;;;;;;17.46;46.02;101555.84;4980160;28;20043;-65
2021/03/24 11:18:24;;;;;;;6.97;1.67;;;;;;;17.48;45.94;101557.31;5004525;28;20359;-64
2021/03/24 11:21:00;;;;;;;5.28;1.42;;;;;;;17.46;45.81;101545.22;5000837;28;20108;-66
2021/03/24 11:23:50;;;;;;;7.57;1.77;;;;;;;17.47;46.19;101554.84;4995571;28;20089;-65
2021/03/24 11:26:30;;;;;;;6.07;1.58;;;;;;;17.48;45.76;101551.19;4992165;28;20041;-64
2021/03/24 11:28:58;;;;;;;6.35;1.70;;;;;;;17.50;45.87;101554.50;4991432;28;20089;-66
2021/03/24 11:31:45;;;;;;;7.80;1.50;;;;;;;17.48;45.79;101556.50;4991922;28;20037;-64
2021/03/24 11:34:15;;;;;;;7.45;1.83;;;;;;;17.49;45.72;101547.53;4974146;28;20372;-64
2021/03/24 11:36:46;;;;;;;6.85;1.50;;;;;;;17.48;45.52;101551.19;4992875;28;20034;-64
2021/03/24 11:39:14;;;;;;;5.70;1.75;;;;;;;17.48;45.45;101552.03;4991309;28;20089;-65
2021/03/24 11:41:42;;;;;;;6.93;1.50;;;;;;;17.50;45.69;101557.16;4986132;28;20037;-64
2021/03/24 11:44:15;;;;;;;4.90;1.67;;;;;;;17.46;45.62;101556.66;4995986;28;20125;-64
2021/03/24 11:46:43;;;;;;;5.43;1.40;;;;;;;17.46;45.37;101545.22;5000860;28;20029;-64
2021/03/24 11:49:40;;;;;;;8.25;1.50;;;;;;;17.44;44.79;101542.75;4990990;28;20030;-65
2021/03/24 11:52:31;;;;;;;10.52;1.70;;;;;;;17.43;44.85;101556.16;4960632;28;20043;-68
2021/03/24 11:55:23;;;;;;;5.45;1.60;;;;;;;17.41;44.75;101544.91;4987841;28;20041;-64
2021/03/24 11:58:18;;;;;;;8.43;1.60;;;;;;;17.38;44.65;101543.41;5001227;28;20173;-64
2021/03/24 12:00:50;;;;;;;7.78;1.85;;;;;;;17.38;44.86;101543.41;4978418;28;20034;-64
2021/03/24 12:03:49;;;;;;;7.18;1.70;;;;;;;17.36;44.86;101546.22;4998414;28;20108;-64
2021/03/24 12:06:32;;;;;;;5.18;1.30;;;;;;;17.38;44.91;101546.06;5005683;28;20038;-66
2021/03/24 12:09:10;;;;;;;5.53;1.20;;;;;;;17.36;44.69;101545.41;5010829;28;20509;-64